Chuluota, FL (32766)

10:50 PM EDT on September 02, 2014 (GMT -0400)
APRSWXNET Chuluota FL US | Change Station
CLOSE
Current Station
Personal Weather Station
Location: Chuluota, FL
Elevation: 65 ft
Nearby Weather Stations

Elev 65 ft 28.64 °N, 81.13 °W | Updated 47 minutes ago

Partly Cloudy
Partly Cloudy
77 °F
Feels Like 78 °F
N
0
Wind Variable Wind from East
Gusts 0.0 mph

Today
High -- | Low -- °F
--% Chance of Precip.
Yesterday
High -- | Low -- °F
Precip. -- in
7:03 AM 7:44 PM
First Quarter, 57% visible
Pressure 30.03 in
Visibility 10.0 miles
Clouds Clear
Heat Index 78 °F
Dew Point 72 °F
Humidity 86%
Rainfall -999.00 in
Snow Depth Not available.
UV 0 out of 12
Pollen 7.80 out of 12
Air Quality Not available.
Flu Activity Not available.
METAR KSFB 030153Z 14005KT 10SM CLR 27/22 A3003 RMK AO2 SLP168 T02670222

More Conditions Fewer Conditions

Pressure 30.03 in
Visibility 10.0 miles
Clouds Clear
Heat Index 78 °F
Dew Point 72 °F
Humidity 86%
Rainfall -999.00 in
Snow Depth Not available.
UV 0 out of 12
Pollen 7.80 out of 12
Air Quality Not available.
Flu Activity Not available.
METAR KSFB 030153Z 14005KT 10SM CLR 27/22 A3003 RMK AO2 SLP168 T02670222

More Conditions Fewer Conditions

10-Day Weather Forecast

Almanac

Astronomy

Sep. 02, 2014 Rise Set
Actual Time 7:03 AM EDT 7:44 PM EDT
Civil Twilight 6:39 AM EDT 8:08 PM EDT
Nautical Twilight 6:10 AM EDT 8:36 PM EDT
Astronomical Twilight 5:42 AM EDT 9:05 PM EDT
Moon 2:12 PM EDT (9/2) 12:18 AM EDT (9/2)
Length of Visible Light 13h 29m
Length of Day
12h 41m
Tomorrow will be 1m 39s shorter.
First Quarter, 57% of the Moon is Illuminated
Today
First Quarter
Sep 8
Full
Sep 15
Last Quarter
Sep 24
New
Oct 1
First Quarter

Today's Extremes

State Highs State Lows

Community

WunderPhotos

Upload Photos

1,749,845 photos uploaded!

Nearby

Snow Depth

Station Depth Elevation
No new snow has been reported.

Earthquake Activity

City Distance Mag. Time & Date
No recent earthquake activity has been reported nearby.
Minimum magnitude displayed is 2.5.

Coastal Water Temperatures

Place Temperature
Trident Pier, FL 87.1 °F
Fort Myers, FL 90.0 °F
Lake Worth, FL 87.1 °F

Nearby Weather Stations